sensor_id;sensor_type;location;lat;lon;timestamp;P1;durP1;ratioP1;P2;durP2;ratioP2
17390;SDS011;8813;54.444;18.446;2022-12-13T00:01:11;2.80;;;2.70;;
17390;SDS011;8813;54.444;18.446;2022-12-13T00:03:40;4.23;;;2.70;;
17390;SDS011;8813;54.444;18.446;2022-12-13T00:06:08;2.60;;;2.40;;
17390;SDS011;8813;54.444;18.446;2022-12-13T00:08:35;3.73;;;2.90;;
17390;SDS011;8813;54.444;18.446;2022-12-13T00:11:03;2.83;;;2.63;;
17390;SDS011;8813;54.444;18.446;2022-12-13T00:13:31;2.67;;;2.57;;
17390;SDS011;8813;54.444;18.446;2022-12-13T00:15:59;6.07;;;2.57;;
17390;SDS011;8813;54.444;18.446;2022-12-13T00:18:27;2.43;;;2.33;;
17390;SDS011;8813;54.444;18.446;2022-12-13T00:20:55;4.90;;;2.90;;
17390;SDS011;8813;54.444;18.446;2022-12-13T00:23:22;3.13;;;2.93;;
17390;SDS011;8813;54.444;18.446;2022-12-13T00:25:49;2.90;;;2.70;;
17390;SDS011;8813;54.444;18.446;2022-12-13T00:28:16;2.77;;;2.57;;
17390;SDS011;8813;54.444;18.446;2022-12-13T00:30:43;2.67;;;2.47;;
17390;SDS011;8813;54.444;18.446;2022-12-13T00:33:10;2.63;;;2.50;;
17390;SDS011;8813;54.444;18.446;2022-12-13T00:35:38;2.90;;;2.70;;
17390;SDS011;8813;54.444;18.446;2022-12-13T00:38:07;3.50;;;2.70;;
17390;SDS011;8813;54.444;18.446;2022-12-13T00:40:35;3.00;;;2.80;;
17390;SDS011;8813;54.444;18.446;2022-12-13T00:43:02;2.57;;;2.43;;
17390;SDS011;8813;54.444;18.446;2022-12-13T00:45:29;3.33;;;2.83;;
17390;SDS011;8813;54.444;18.446;2022-12-13T00:47:56;4.60;;;2.70;;
17390;SDS011;8813;54.444;18.446;2022-12-13T00:50:23;2.70;;;2.60;;
17390;SDS011;8813;54.444;18.446;2022-12-13T00:52:50;3.10;;;2.90;;
17390;SDS011;8813;54.444;18.446;2022-12-13T00:55:18;2.70;;;2.60;;
17390;SDS011;8813;54.444;18.446;2022-12-13T00:57:45;2.73;;;2.60;;
17390;SDS011;8813;54.444;18.446;2022-12-13T01:00:12;2.90;;;2.70;;
17390;SDS011;8813;54.444;18.446;2022-12-13T01:02:39;2.63;;;2.50;;
17390;SDS011;8813;54.444;18.446;2022-12-13T01:05:07;2.80;;;2.60;;
17390;SDS011;8813;54.444;18.446;2022-12-13T01:07:35;2.87;;;2.67;;
17390;SDS011;8813;54.444;18.446;2022-12-13T01:10:02;2.90;;;2.70;;
17390;SDS011;8813;54.444;18.446;2022-12-13T01:12:30;3.10;;;2.90;;
17390;SDS011;8813;54.444;18.446;2022-12-13T01:14:57;2.83;;;2.63;;
17390;SDS011;8813;54.444;18.446;2022-12-13T01:17:24;2.90;;;2.70;;
17390;SDS011;8813;54.444;18.446;2022-12-13T01:19:51;2.87;;;2.67;;
17390;SDS011;8813;54.444;18.446;2022-12-13T01:22:18;2.63;;;2.53;;
17390;SDS011;8813;54.444;18.446;2022-12-13T01:24:45;2.43;;;2.30;;
17390;SDS011;8813;54.444;18.446;2022-12-13T01:27:12;2.37;;;2.27;;
17390;SDS011;8813;54.444;18.446;2022-12-13T01:29:40;2.77;;;2.57;;
17390;SDS011;8813;54.444;18.446;2022-12-13T01:32:07;2.80;;;2.60;;
17390;SDS011;8813;54.444;18.446;2022-12-13T01:34:33;2.53;;;2.33;;
17390;SDS011;8813;54.444;18.446;2022-12-13T01:37:00;2.30;;;2.10;;
17390;SDS011;8813;54.444;18.446;2022-12-13T01:39:27;3.17;;;2.87;;
17390;SDS011;8813;54.444;18.446;2022-12-13T01:41:55;2.97;;;2.77;;
17390;SDS011;8813;54.444;18.446;2022-12-13T01:47:27;2.47;;;2.37;;
17390;SDS011;8813;54.444;18.446;2022-12-13T01:49:57;3.50;;;2.60;;
17390;SDS011;8813;54.444;18.446;2022-12-13T01:52:26;2.60;;;2.40;;
17390;SDS011;8813;54.444;18.446;2022-12-13T01:54:54;3.07;;;2.87;;
17390;SDS011;8813;54.444;18.446;2022-12-13T01:57:22;2.73;;;2.50;;
17390;SDS011;8813;54.444;18.446;2022-12-13T01:59:49;2.93;;;2.73;;
17390;SDS011;8813;54.444;18.446;2022-12-13T02:02:18;2.63;;;2.43;;
17390;SDS011;8813;54.444;18.446;2022-12-13T02:04:47;2.60;;;2.40;;
17390;SDS011;8813;54.444;18.446;2022-12-13T02:07:17;2.57;;;2.40;;
17390;SDS011;8813;54.444;18.446;2022-12-13T02:09:44;2.70;;;2.60;;
17390;SDS011;8813;54.444;18.446;2022-12-13T02:12:11;3.20;;;2.47;;
17390;SDS011;8813;54.444;18.446;2022-12-13T02:14:38;3.00;;;2.80;;
17390;SDS011;8813;54.444;18.446;2022-12-13T02:17:07;2.90;;;2.70;;
17390;SDS011;8813;54.444;18.446;2022-12-13T02:19:48;2.57;;;2.37;;
17390;SDS011;8813;54.444;18.446;2022-12-13T02:22:44;2.90;;;2.70;;
17390;SDS011;8813;54.444;18.446;2022-12-13T02:25:26;2.47;;;2.37;;
17390;SDS011;8813;54.444;18.446;2022-12-13T02:28:04;2.70;;;2.50;;
17390;SDS011;8813;54.444;18.446;2022-12-13T02:30:43;3.60;;;2.60;;
17390;SDS011;8813;54.444;18.446;2022-12-13T02:33:24;2.87;;;2.67;;
17390;SDS011;8813;54.444;18.446;2022-12-13T02:35:59;3.53;;;2.70;;
17390;SDS011;8813;54.444;18.446;2022-12-13T02:38:32;3.23;;;2.97;;
17390;SDS011;8813;54.444;18.446;2022-12-13T02:41:04;2.77;;;2.67;;
17390;SDS011;8813;54.444;18.446;2022-12-13T02:43:36;2.90;;;2.70;;
17390;SDS011;8813;54.444;18.446;2022-12-13T02:46:09;3.10;;;2.70;;
17390;SDS011;8813;54.444;18.446;2022-12-13T02:48:37;2.87;;;2.77;;
17390;SDS011;8813;54.444;18.446;2022-12-13T02:51:06;2.67;;;2.50;;
17390;SDS011;8813;54.444;18.446;2022-12-13T02:53:34;2.90;;;2.70;;
17390;SDS011;8813;54.444;18.446;2022-12-13T02:56:02;3.10;;;2.80;;
17390;SDS011;8813;54.444;18.446;2022-12-13T02:58:32;3.13;;;2.93;;
17390;SDS011;8813;54.444;18.446;2022-12-13T03:01:04;3.63;;;3.10;;
17390;SDS011;8813;54.444;18.446;2022-12-13T03:03:40;2.87;;;2.67;;
17390;SDS011;8813;54.444;18.446;2022-12-13T03:06:19;2.70;;;2.50;;
17390;SDS011;8813;54.444;18.446;2022-12-13T03:08:58;3.40;;;3.10;;
17390;SDS011;8813;54.444;18.446;2022-12-13T03:11:36;2.70;;;2.50;;
17390;SDS011;8813;54.444;18.446;2022-12-13T03:14:30;2.50;;;2.30;;
17390;SDS011;8813;54.444;18.446;2022-12-13T03:17:00;2.70;;;2.60;;
17390;SDS011;8813;54.444;18.446;2022-12-13T03:19:28;2.67;;;2.57;;
17390;SDS011;8813;54.444;18.446;2022-12-13T03:21:55;4.10;;;3.80;;
17390;SDS011;8813;54.444;18.446;2022-12-13T03:24:22;3.47;;;2.90;;
17390;SDS011;8813;54.444;18.446;2022-12-13T03:26:49;3.20;;;3.00;;
17390;SDS011;8813;54.444;18.446;2022-12-13T03:29:16;2.90;;;2.70;;
17390;SDS011;8813;54.444;18.446;2022-12-13T03:31:44;3.10;;;2.80;;
17390;SDS011;8813;54.444;18.446;2022-12-13T03:34:12;2.70;;;2.53;;
17390;SDS011;8813;54.444;18.446;2022-12-13T03:36:39;5.43;;;3.30;;
17390;SDS011;8813;54.444;18.446;2022-12-13T03:39:06;2.77;;;2.67;;
17390;SDS011;8813;54.444;18.446;2022-12-13T03:41:33;3.10;;;2.90;;
17390;SDS011;8813;54.444;18.446;2022-12-13T03:44:02;3.53;;;3.23;;
17390;SDS011;8813;54.444;18.446;2022-12-13T03:46:30;3.83;;;3.53;;
17390;SDS011;8813;54.444;18.446;2022-12-13T03:48:57;3.70;;;3.40;;
17390;SDS011;8813;54.444;18.446;2022-12-13T03:51:25;3.13;;;2.83;;
17390;SDS011;8813;54.444;18.446;2022-12-13T03:53:52;4.77;;;3.27;;
17390;SDS011;8813;54.444;18.446;2022-12-13T03:56:19;2.70;;;2.50;;
17390;SDS011;8813;54.444;18.446;2022-12-13T03:58:46;2.83;;;2.63;;
17390;SDS011;8813;54.444;18.446;2022-12-13T04:01:14;3.20;;;3.00;;
17390;SDS011;8813;54.444;18.446;2022-12-13T04:03:42;4.03;;;3.73;;
17390;SDS011;8813;54.444;18.446;2022-12-13T04:06:10;3.37;;;3.10;;
17390;SDS011;8813;54.444;18.446;2022-12-13T04:08:38;5.60;;;4.03;;
17390;SDS011;8813;54.444;18.446;2022-12-13T04:11:06;3.60;;;3.30;;
17390;SDS011;8813;54.444;18.446;2022-12-13T04:13:47;3.10;;;2.80;;
17390;SDS011;8813;54.444;18.446;2022-12-13T04:16:14;3.30;;;3.10;;
17390;SDS011;8813;54.444;18.446;2022-12-13T04:18:40;4.00;;;3.30;;
17390;SDS011;8813;54.444;18.446;2022-12-13T04:21:07;3.97;;;3.67;;
17390;SDS011;8813;54.444;18.446;2022-12-13T04:23:34;3.60;;;3.30;;
17390;SDS011;8813;54.444;18.446;2022-12-13T04:26:02;2.93;;;2.83;;
17390;SDS011;8813;54.444;18.446;2022-12-13T04:28:29;3.20;;;3.00;;
17390;SDS011;8813;54.444;18.446;2022-12-13T04:30:56;3.33;;;3.13;;
17390;SDS011;8813;54.444;18.446;2022-12-13T04:33:23;2.70;;;2.60;;
17390;SDS011;8813;54.444;18.446;2022-12-13T04:35:50;2.67;;;2.47;;
17390;SDS011;8813;54.444;18.446;2022-12-13T04:38:17;3.00;;;2.80;;
17390;SDS011;8813;54.444;18.446;2022-12-13T04:40:44;2.70;;;2.60;;
17390;SDS011;8813;54.444;18.446;2022-12-13T04:43:13;2.93;;;2.63;;
17390;SDS011;8813;54.444;18.446;2022-12-13T04:45:39;2.90;;;2.70;;
17390;SDS011;8813;54.444;18.446;2022-12-13T04:48:06;2.87;;;2.57;;
17390;SDS011;8813;54.444;18.446;2022-12-13T04:50:33;3.10;;;2.90;;
17390;SDS011;8813;54.444;18.446;2022-12-13T04:53:00;3.73;;;2.80;;
17390;SDS011;8813;54.444;18.446;2022-12-13T04:55:27;3.23;;;3.03;;
17390;SDS011;8813;54.444;18.446;2022-12-13T04:57:54;3.90;;;3.50;;
17390;SDS011;8813;54.444;18.446;2022-12-13T05:00:22;3.90;;;3.60;;
17390;SDS011;8813;54.444;18.446;2022-12-13T05:02:49;2.77;;;2.57;;
17390;SDS011;8813;54.444;18.446;2022-12-13T05:05:16;2.77;;;2.50;;
17390;SDS011;8813;54.444;18.446;2022-12-13T05:07:43;3.23;;;3.00;;
17390;SDS011;8813;54.444;18.446;2022-12-13T05:10:10;3.20;;;2.90;;
17390;SDS011;8813;54.444;18.446;2022-12-13T05:12:37;4.13;;;3.17;;
17390;SDS011;8813;54.444;18.446;2022-12-13T05:15:04;2.93;;;2.73;;
17390;SDS011;8813;54.444;18.446;2022-12-13T05:17:33;3.20;;;2.90;;
17390;SDS011;8813;54.444;18.446;2022-12-13T05:19:59;3.00;;;2.80;;
17390;SDS011;8813;54.444;18.446;2022-12-13T05:22:26;3.10;;;2.80;;
17390;SDS011;8813;54.444;18.446;2022-12-13T05:24:53;4.37;;;2.97;;
17390;SDS011;8813;54.444;18.446;2022-12-13T05:27:20;3.90;;;3.60;;
17390;SDS011;8813;54.444;18.446;2022-12-13T05:29:47;3.60;;;3.30;;
17390;SDS011;8813;54.444;18.446;2022-12-13T05:32:14;4.57;;;3.60;;
17390;SDS011;8813;54.444;18.446;2022-12-13T05:34:42;4.00;;;3.60;;
17390;SDS011;8813;54.444;18.446;2022-12-13T05:37:09;4.10;;;3.63;;
17390;SDS011;8813;54.444;18.446;2022-12-13T05:39:36;5.10;;;3.60;;
17390;SDS011;8813;54.444;18.446;2022-12-13T05:42:02;4.03;;;3.50;;
17390;SDS011;8813;54.444;18.446;2022-12-13T05:44:29;3.83;;;3.53;;
17390;SDS011;8813;54.444;18.446;2022-12-13T05:46:57;3.80;;;3.50;;
17390;SDS011;8813;54.444;18.446;2022-12-13T05:49:23;3.63;;;3.33;;
17390;SDS011;8813;54.444;18.446;2022-12-13T05:51:52;4.00;;;3.70;;
17390;SDS011;8813;54.444;18.446;2022-12-13T05:54:19;4.03;;;3.77;;
17390;SDS011;8813;54.444;18.446;2022-12-13T05:56:45;4.70;;;4.30;;
17390;SDS011;8813;54.444;18.446;2022-12-13T05:59:12;4.57;;;3.80;;
17390;SDS011;8813;54.444;18.446;2022-12-13T06:01:39;5.27;;;4.13;;
17390;SDS011;8813;54.444;18.446;2022-12-13T06:04:06;4.33;;;3.93;;
17390;SDS011;8813;54.444;18.446;2022-12-13T06:06:33;4.77;;;3.70;;
17390;SDS011;8813;54.444;18.446;2022-12-13T06:09:02;4.63;;;4.10;;
17390;SDS011;8813;54.444;18.446;2022-12-13T06:11:29;3.97;;;3.53;;
17390;SDS011;8813;54.444;18.446;2022-12-13T06:13:56;4.43;;;3.83;;
17390;SDS011;8813;54.444;18.446;2022-12-13T06:16:23;5.23;;;4.13;;
17390;SDS011;8813;54.444;18.446;2022-12-13T06:18:50;4.40;;;4.00;;
17390;SDS011;8813;54.444;18.446;2022-12-13T06:21:18;4.67;;;4.13;;
17390;SDS011;8813;54.444;18.446;2022-12-13T06:23:45;4.63;;;3.97;;
17390;SDS011;8813;54.444;18.446;2022-12-13T06:26:14;3.87;;;3.30;;
17390;SDS011;8813;54.444;18.446;2022-12-13T06:28:40;3.67;;;3.37;;
17390;SDS011;8813;54.444;18.446;2022-12-13T06:31:07;4.50;;;4.10;;
17390;SDS011;8813;54.444;18.446;2022-12-13T06:33:36;4.87;;;3.70;;
17390;SDS011;8813;54.444;18.446;2022-12-13T06:36:03;4.03;;;3.47;;
17390;SDS011;8813;54.444;18.446;2022-12-13T06:38:31;3.60;;;3.30;;
17390;SDS011;8813;54.444;18.446;2022-12-13T06:41:05;5.50;;;3.53;;
17390;SDS011;8813;54.444;18.446;2022-12-13T06:43:34;3.73;;;3.43;;
17390;SDS011;8813;54.444;18.446;2022-12-13T06:46:02;4.97;;;3.90;;
17390;SDS011;8813;54.444;18.446;2022-12-13T06:48:30;4.27;;;3.90;;
17390;SDS011;8813;54.444;18.446;2022-12-13T06:50:58;5.57;;;4.27;;
17390;SDS011;8813;54.444;18.446;2022-12-13T06:53:26;11.07;;;4.53;;
17390;SDS011;8813;54.444;18.446;2022-12-13T06:55:53;8.27;;;4.23;;
17390;SDS011;8813;54.444;18.446;2022-12-13T06:58:28;8.47;;;4.77;;
17390;SDS011;8813;54.444;18.446;2022-12-13T07:01:03;6.13;;;4.37;;
17390;SDS011;8813;54.444;18.446;2022-12-13T07:03:31;9.67;;;5.03;;
17390;SDS011;8813;54.444;18.446;2022-12-13T07:05:59;7.60;;;4.77;;
17390;SDS011;8813;54.444;18.446;2022-12-13T07:08:26;6.13;;;4.83;;
17390;SDS011;8813;54.444;18.446;2022-12-13T07:10:53;5.17;;;3.97;;
17390;SDS011;8813;54.444;18.446;2022-12-13T07:13:21;6.00;;;3.70;;
17390;SDS011;8813;54.444;18.446;2022-12-13T07:15:47;5.80;;;4.30;;
17390;SDS011;8813;54.444;18.446;2022-12-13T07:18:16;4.90;;;4.30;;
17390;SDS011;8813;54.444;18.446;2022-12-13T07:20:43;4.10;;;3.70;;
17390;SDS011;8813;54.444;18.446;2022-12-13T07:23:10;4.13;;;3.60;;
17390;SDS011;8813;54.444;18.446;2022-12-13T07:25:37;4.23;;;3.83;;
17390;SDS011;8813;54.444;18.446;2022-12-13T07:28:05;4.70;;;4.20;;
17390;SDS011;8813;54.444;18.446;2022-12-13T07:30:33;4.20;;;3.90;;
17390;SDS011;8813;54.444;18.446;2022-12-13T07:33:02;4.47;;;4.00;;
17390;SDS011;8813;54.444;18.446;2022-12-13T07:35:31;6.60;;;4.30;;
17390;SDS011;8813;54.444;18.446;2022-12-13T07:37:58;4.40;;;4.00;;
17390;SDS011;8813;54.444;18.446;2022-12-13T07:40:25;4.93;;;4.50;;
17390;SDS011;8813;54.444;18.446;2022-12-13T07:42:52;4.23;;;3.83;;
17390;SDS011;8813;54.444;18.446;2022-12-13T07:45:21;6.13;;;4.70;;
17390;SDS011;8813;54.444;18.446;2022-12-13T07:47:48;8.73;;;5.70;;
17390;SDS011;8813;54.444;18.446;2022-12-13T07:50:15;8.07;;;6.00;;
17390;SDS011;8813;54.444;18.446;2022-12-13T07:52:45;7.93;;;6.83;;
17390;SDS011;8813;54.444;18.446;2022-12-13T07:55:12;5.33;;;4.83;;
17390;SDS011;8813;54.444;18.446;2022-12-13T07:57:39;5.10;;;4.60;;
17390;SDS011;8813;54.444;18.446;2022-12-13T08:00:07;5.93;;;5.43;;
17390;SDS011;8813;54.444;18.446;2022-12-13T08:02:34;8.60;;;7.80;;
17390;SDS011;8813;54.444;18.446;2022-12-13T08:05:01;6.63;;;5.57;;
17390;SDS011;8813;54.444;18.446;2022-12-13T08:07:29;5.37;;;4.87;;
17390;SDS011;8813;54.444;18.446;2022-12-13T08:09:57;5.10;;;4.60;;
17390;SDS011;8813;54.444;18.446;2022-12-13T08:12:24;6.23;;;5.10;;
17390;SDS011;8813;54.444;18.446;2022-12-13T08:14:51;5.43;;;4.20;;
17390;SDS011;8813;54.444;18.446;2022-12-13T08:17:19;7.73;;;5.77;;
17390;SDS011;8813;54.444;18.446;2022-12-13T08:19:47;9.07;;;5.90;;
17390;SDS011;8813;54.444;18.446;2022-12-13T08:22:13;31.83;;;13.83;;
17390;SDS011;8813;54.444;18.446;2022-12-13T08:24:40;9.97;;;6.27;;
17390;SDS011;8813;54.444;18.446;2022-12-13T08:27:08;7.93;;;5.53;;
17390;SDS011;8813;54.444;18.446;2022-12-13T08:29:35;6.97;;;4.80;;
17390;SDS011;8813;54.444;18.446;2022-12-13T08:32:03;9.87;;;6.53;;
17390;SDS011;8813;54.444;18.446;2022-12-13T08:34:31;6.20;;;4.90;;
17390;SDS011;8813;54.444;18.446;2022-12-13T08:36:58;21.63;;;9.10;;
17390;SDS011;8813;54.444;18.446;2022-12-13T08:39:25;12.20;;;5.37;;
17390;SDS011;8813;54.444;18.446;2022-12-13T08:41:52;12.63;;;6.37;;
17390;SDS011;8813;54.444;18.446;2022-12-13T08:44:21;11.80;;;7.13;;
17390;SDS011;8813;54.444;18.446;2022-12-13T08:46:48;12.60;;;8.03;;
17390;SDS011;8813;54.444;18.446;2022-12-13T08:49:15;5.80;;;4.90;;
17390;SDS011;8813;54.444;18.446;2022-12-13T08:51:42;7.30;;;6.07;;
17390;SDS011;8813;54.444;18.446;2022-12-13T08:54:09;6.37;;;5.00;;
17390;SDS011;8813;54.444;18.446;2022-12-13T08:56:36;6.90;;;5.10;;
17390;SDS011;8813;54.444;18.446;2022-12-13T08:59:03;5.13;;;4.63;;
17390;SDS011;8813;54.444;18.446;2022-12-13T09:01:31;9.10;;;5.33;;
17390;SDS011;8813;54.444;18.446;2022-12-13T09:03:58;12.70;;;8.30;;
17390;SDS011;8813;54.444;18.446;2022-12-13T09:06:25;11.07;;;7.57;;
17390;SDS011;8813;54.444;18.446;2022-12-13T09:08:52;13.47;;;9.90;;
17390;SDS011;8813;54.444;18.446;2022-12-13T09:11:19;8.67;;;6.47;;
17390;SDS011;8813;54.444;18.446;2022-12-13T09:13:46;8.30;;;5.70;;
17390;SDS011;8813;54.444;18.446;2022-12-13T09:16:14;15.73;;;7.70;;
17390;SDS011;8813;54.444;18.446;2022-12-13T09:18:45;13.20;;;7.37;;
17390;SDS011;8813;54.444;18.446;2022-12-13T09:21:13;14.47;;;7.40;;
17390;SDS011;8813;54.444;18.446;2022-12-13T09:23:40;6.73;;;4.83;;
17390;SDS011;8813;54.444;18.446;2022-12-13T09:26:07;5.57;;;4.40;;
17390;SDS011;8813;54.444;18.446;2022-12-13T09:28:35;5.07;;;4.57;;
17390;SDS011;8813;54.444;18.446;2022-12-13T09:31:05;7.27;;;5.23;;
17390;SDS011;8813;54.444;18.446;2022-12-13T09:33:32;4.70;;;4.20;;
17390;SDS011;8813;54.444;18.446;2022-12-13T09:36:01;8.77;;;4.80;;
17390;SDS011;8813;54.444;18.446;2022-12-13T09:38:29;6.63;;;4.67;;
17390;SDS011;8813;54.444;18.446;2022-12-13T09:40:56;6.90;;;5.27;;
17390;SDS011;8813;54.444;18.446;2022-12-13T09:43:26;8.13;;;5.20;;
17390;SDS011;8813;54.444;18.446;2022-12-13T09:45:54;14.20;;;10.17;;
17390;SDS011;8813;54.444;18.446;2022-12-13T09:48:21;24.60;;;15.53;;
17390;SDS011;8813;54.444;18.446;2022-12-13T09:50:49;38.73;;;19.40;;
17390;SDS011;8813;54.444;18.446;2022-12-13T09:53:18;21.80;;;11.93;;
17390;SDS011;8813;54.444;18.446;2022-12-13T09:55:46;13.13;;;10.67;;
17390;SDS011;8813;54.444;18.446;2022-12-13T09:58:15;13.87;;;7.60;;
17390;SDS011;8813;54.444;18.446;2022-12-13T10:00:45;8.00;;;7.17;;
17390;SDS011;8813;54.444;18.446;2022-12-13T10:03:13;11.23;;;7.07;;
17390;SDS011;8813;54.444;18.446;2022-12-13T10:05:43;5.37;;;4.83;;
17390;SDS011;8813;54.444;18.446;2022-12-13T10:08:12;5.70;;;4.87;;
17390;SDS011;8813;54.444;18.446;2022-12-13T10:10:42;8.90;;;6.90;;
17390;SDS011;8813;54.444;18.446;2022-12-13T10:13:12;13.43;;;8.07;;
17390;SDS011;8813;54.444;18.446;2022-12-13T10:15:42;6.27;;;4.50;;
17390;SDS011;8813;54.444;18.446;2022-12-13T10:18:13;9.57;;;6.93;;
17390;SDS011;8813;54.444;18.446;2022-12-13T10:20:44;5.30;;;4.80;;
17390;SDS011;8813;54.444;18.446;2022-12-13T10:23:12;5.07;;;4.10;;
17390;SDS011;8813;54.444;18.446;2022-12-13T10:25:47;8.97;;;6.20;;
17390;SDS011;8813;54.444;18.446;2022-12-13T10:28:23;7.30;;;5.50;;
17390;SDS011;8813;54.444;18.446;2022-12-13T10:30:51;11.80;;;7.17;;
17390;SDS011;8813;54.444;18.446;2022-12-13T10:33:19;27.03;;;13.37;;
17390;SDS011;8813;54.444;18.446;2022-12-13T10:36:00;24.77;;;17.77;;
17390;SDS011;8813;54.444;18.446;2022-12-13T10:38:33;9.80;;;7.43;;
17390;SDS011;8813;54.444;18.446;2022-12-13T10:41:04;11.50;;;8.37;;
17390;SDS011;8813;54.444;18.446;2022-12-13T10:46:58;9.20;;;5.10;;
17390;SDS011;8813;54.444;18.446;2022-12-13T10:49:31;9.00;;;5.37;;
17390;SDS011;8813;54.444;18.446;2022-12-13T10:52:03;7.37;;;5.60;;
17390;SDS011;8813;54.444;18.446;2022-12-13T10:54:31;10.73;;;6.10;;
17390;SDS011;8813;54.444;18.446;2022-12-13T10:57:01;5.80;;;5.20;;
17390;SDS011;8813;54.444;18.446;2022-12-13T10:59:32;6.63;;;5.30;;
17390;SDS011;8813;54.444;18.446;2022-12-13T11:01:59;7.77;;;4.90;;
17390;SDS011;8813;54.444;18.446;2022-12-13T11:04:28;8.37;;;5.60;;
17390;SDS011;8813;54.444;18.446;2022-12-13T11:06:57;9.93;;;6.93;;
17390;SDS011;8813;54.444;18.446;2022-12-13T11:09:26;11.97;;;6.10;;
17390;SDS011;8813;54.444;18.446;2022-12-13T11:11:55;8.77;;;6.07;;
17390;SDS011;8813;54.444;18.446;2022-12-13T11:14:25;19.27;;;10.37;;
17390;SDS011;8813;54.444;18.446;2022-12-13T11:16:54;21.20;;;11.50;;
17390;SDS011;8813;54.444;18.446;2022-12-13T11:19:24;11.33;;;7.13;;
17390;SDS011;8813;54.444;18.446;2022-12-13T11:21:54;14.63;;;8.47;;
17390;SDS011;8813;54.444;18.446;2022-12-13T11:24:23;12.10;;;7.37;;
17390;SDS011;8813;54.444;18.446;2022-12-13T11:26:53;20.47;;;12.73;;
17390;SDS011;8813;54.444;18.446;2022-12-13T11:32:29;6.00;;;5.20;;
17390;SDS011;8813;54.444;18.446;2022-12-13T11:35:04;6.50;;;5.50;;
17390;SDS011;8813;54.444;18.446;2022-12-13T11:37:39;7.97;;;6.70;;
17390;SDS011;8813;54.444;18.446;2022-12-13T11:40:10;13.27;;;9.10;;
17390;SDS011;8813;54.444;18.446;2022-12-13T11:42:41;9.90;;;6.53;;
17390;SDS011;8813;54.444;18.446;2022-12-13T11:45:13;21.97;;;12.47;;
17390;SDS011;8813;54.444;18.446;2022-12-13T11:47:45;32.90;;;17.40;;
17390;SDS011;8813;54.444;18.446;2022-12-13T11:50:14;40.20;;;19.13;;
17390;SDS011;8813;54.444;18.446;2022-12-13T11:52:43;9.70;;;8.10;;
17390;SDS011;8813;54.444;18.446;2022-12-13T11:55:15;9.53;;;7.93;;
17390;SDS011;8813;54.444;18.446;2022-12-13T11:57:45;8.53;;;7.70;;
17390;SDS011;8813;54.444;18.446;2022-12-13T12:00:20;5.23;;;4.77;;
17390;SDS011;8813;54.444;18.446;2022-12-13T12:02:54;5.00;;;4.40;;
17390;SDS011;8813;54.444;18.446;2022-12-13T12:05:25;3.40;;;3.10;;
17390;SDS011;8813;54.444;18.446;2022-12-13T12:07:54;2.63;;;2.30;;
17390;SDS011;8813;54.444;18.446;2022-12-13T12:10:26;3.27;;;3.07;;
17390;SDS011;8813;54.444;18.446;2022-12-13T12:13:02;2.87;;;2.67;;
17390;SDS011;8813;54.444;18.446;2022-12-13T12:15:33;3.17;;;2.87;;
17390;SDS011;8813;54.444;18.446;2022-12-13T12:18:04;2.90;;;2.70;;
17390;SDS011;8813;54.444;18.446;2022-12-13T12:20:38;2.83;;;2.63;;
17390;SDS011;8813;54.444;18.446;2022-12-13T12:23:13;3.97;;;2.20;;
17390;SDS011;8813;54.444;18.446;2022-12-13T12:25:46;3.10;;;2.90;;
17390;SDS011;8813;54.444;18.446;2022-12-13T12:28:20;2.27;;;2.17;;
17390;SDS011;8813;54.444;18.446;2022-12-13T12:30:54;2.30;;;2.17;;
17390;SDS011;8813;54.444;18.446;2022-12-13T12:33:26;3.63;;;2.40;;
17390;SDS011;8813;54.444;18.446;2022-12-13T12:36:03;4.27;;;2.77;;
17390;SDS011;8813;54.444;18.446;2022-12-13T12:38:56;2.50;;;2.30;;
17390;SDS011;8813;54.444;18.446;2022-12-13T12:41:34;2.57;;;2.37;;
17390;SDS011;8813;54.444;18.446;2022-12-13T12:44:10;2.37;;;2.20;;
17390;SDS011;8813;54.444;18.446;2022-12-13T12:46:49;3.10;;;2.80;;
17390;SDS011;8813;54.444;18.446;2022-12-13T12:49:28;3.37;;;2.20;;
17390;SDS011;8813;54.444;18.446;2022-12-13T12:52:14;2.77;;;2.67;;
17390;SDS011;8813;54.444;18.446;2022-12-13T12:54:48;2.10;;;2.00;;
17390;SDS011;8813;54.444;18.446;2022-12-13T12:57:28;2.80;;;2.60;;
17390;SDS011;8813;54.444;18.446;2022-12-13T13:00:04;14.73;;;10.90;;
17390;SDS011;8813;54.444;18.446;2022-12-13T13:02:37;13.07;;;9.93;;
17390;SDS011;8813;54.444;18.446;2022-12-13T13:05:09;18.90;;;12.87;;
17390;SDS011;8813;54.444;18.446;2022-12-13T13:07:42;4.77;;;4.33;;
17390;SDS011;8813;54.444;18.446;2022-12-13T13:10:12;8.37;;;5.63;;
17390;SDS011;8813;54.444;18.446;2022-12-13T13:12:39;5.67;;;4.53;;
17390;SDS011;8813;54.444;18.446;2022-12-13T13:18:25;7.37;;;5.80;;
17390;SDS011;8813;54.444;18.446;2022-12-13T13:24:23;3.20;;;3.00;;
17390;SDS011;8813;54.444;18.446;2022-12-13T13:26:52;8.13;;;5.90;;
17390;SDS011;8813;54.444;18.446;2022-12-13T13:29:21;25.83;;;15.07;;
17390;SDS011;8813;54.444;18.446;2022-12-13T13:32:23;6.13;;;4.57;;
17390;SDS011;8813;54.444;18.446;2022-12-13T13:35:44;6.53;;;4.63;;
17390;SDS011;8813;54.444;18.446;2022-12-13T13:47:38;6.37;;;4.83;;
17390;SDS011;8813;54.444;18.446;2022-12-13T13:53:22;18.40;;;6.00;;
17390;SDS011;8813;54.444;18.446;2022-12-13T14:02:24;9.77;;;5.83;;
17390;SDS011;8813;54.444;18.446;2022-12-13T14:10:59;12.57;;;6.87;;
17390;SDS011;8813;54.444;18.446;2022-12-13T14:22:37;14.73;;;7.47;;
17390;SDS011;8813;54.444;18.446;2022-12-13T14:28:47;4.57;;;3.87;;
17390;SDS011;8813;54.444;18.446;2022-12-13T14:31:17;4.93;;;4.27;;
17390;SDS011;8813;54.444;18.446;2022-12-13T14:33:46;5.97;;;3.70;;
17390;SDS011;8813;54.444;18.446;2022-12-13T14:36:14;6.23;;;4.33;;
17390;SDS011;8813;54.444;18.446;2022-12-13T14:38:43;5.20;;;4.50;;
17390;SDS011;8813;54.444;18.446;2022-12-13T14:41:14;5.77;;;3.80;;
17390;SDS011;8813;54.444;18.446;2022-12-13T14:43:42;4.53;;;4.03;;
17390;SDS011;8813;54.444;18.446;2022-12-13T14:46:12;5.93;;;4.83;;
17390;SDS011;8813;54.444;18.446;2022-12-13T14:48:43;10.53;;;9.63;;
17390;SDS011;8813;54.444;18.446;2022-12-13T14:51:28;14.77;;;12.13;;
17390;SDS011;8813;54.444;18.446;2022-12-13T14:54:01;7.20;;;5.63;;
17390;SDS011;8813;54.444;18.446;2022-12-13T14:56:31;6.80;;;5.93;;
17390;SDS011;8813;54.444;18.446;2022-12-13T14:58:58;5.57;;;5.03;;
17390;SDS011;8813;54.444;18.446;2022-12-13T15:01:29;5.70;;;4.20;;
17390;SDS011;8813;54.444;18.446;2022-12-13T15:04:16;7.07;;;4.83;;
17390;SDS011;8813;54.444;18.446;2022-12-13T15:06:44;5.23;;;3.67;;
17390;SDS011;8813;54.444;18.446;2022-12-13T15:09:12;4.87;;;3.93;;
17390;SDS011;8813;54.444;18.446;2022-12-13T15:11:40;3.57;;;3.30;;
17390;SDS011;8813;54.444;18.446;2022-12-13T15:14:10;4.00;;;3.53;;
17390;SDS011;8813;54.444;18.446;2022-12-13T15:16:45;3.60;;;3.30;;
17390;SDS011;8813;54.444;18.446;2022-12-13T15:19:13;5.87;;;3.80;;
17390;SDS011;8813;54.444;18.446;2022-12-13T15:21:44;8.50;;;5.20;;
17390;SDS011;8813;54.444;18.446;2022-12-13T15:24:20;5.83;;;5.23;;
17390;SDS011;8813;54.444;18.446;2022-12-13T15:26:50;14.73;;;8.73;;
17390;SDS011;8813;54.444;18.446;2022-12-13T15:29:18;4.53;;;4.13;;
17390;SDS011;8813;54.444;18.446;2022-12-13T15:31:47;5.40;;;3.60;;
17390;SDS011;8813;54.444;18.446;2022-12-13T15:37:03;9.97;;;6.07;;
17390;SDS011;8813;54.444;18.446;2022-12-13T15:39:36;8.40;;;5.67;;
17390;SDS011;8813;54.444;18.446;2022-12-13T15:42:10;17.97;;;8.80;;
17390;SDS011;8813;54.444;18.446;2022-12-13T15:44:43;15.47;;;9.13;;
17390;SDS011;8813;54.444;18.446;2022-12-13T15:47:13;17.33;;;7.30;;
17390;SDS011;8813;54.444;18.446;2022-12-13T15:49:43;22.67;;;7.03;;
17390;SDS011;8813;54.444;18.446;2022-12-13T15:52:22;17.30;;;6.47;;
17390;SDS011;8813;54.444;18.446;2022-12-13T15:54:54;20.87;;;6.27;;
17390;SDS011;8813;54.444;18.446;2022-12-13T15:57:22;12.17;;;6.13;;